Terminal Aerodrome Forecast
Issued by NWS

Home | Current Version | Previous Version | Text Only | Print | Product List | Glossary On
Versions: 1 2 3 4 5 6 7 8 9 10 11 12 13
175
FTUS42 KTAE 212335
TAFABY
TAF
KABY 212335Z 2200/2224 08007KT P6SM SCT040 BKN250
      TEMPO 2211/2215 BKN025
     FM221500 12008KT P6SM SCT035 BKN200=

USA.gov is the U.S. government's official web portal to all federal, state and local government web resources and services.